createdAt,value
2022-09-24T00:00:24.824Z,4.95
2022-09-24T00:04:09.728Z,4.70
2022-09-24T00:07:51.704Z,5.22
2022-09-24T00:11:33.577Z,5.60
2022-09-24T00:15:15.441Z,4.32
2022-09-24T00:18:59.411Z,4.72
2022-09-24T00:22:41.196Z,5.93
2022-09-24T00:26:42.514Z,4.57
2022-09-24T00:30:24.307Z,4.72
2022-09-24T00:34:06.229Z,4.45
2022-09-24T00:37:48.053Z,4.22
2022-09-24T00:41:35.897Z,4.03
2022-09-24T00:45:17.699Z,4.82
2022-09-24T00:49:19.225Z,3.95
2022-09-24T00:53:06.455Z,4.65
2022-09-24T01:00:31.814Z,5.05
2022-09-24T01:04:15.369Z,4.53
2022-09-24T01:07:58.158Z,4.57
2022-09-24T01:11:59.415Z,4.35
2022-09-24T01:15:56.830Z,4.53
2022-09-24T01:19:57.098Z,4.32
2022-09-24T01:23:48.741Z,4.20
2022-09-24T01:28:04.912Z,4.22
2022-09-24T01:31:52.038Z,3.97
2022-09-24T01:39:22.989Z,4.78
2022-09-24T01:43:06.928Z,4.47
2022-09-24T01:46:50.186Z,4.70
2022-09-24T01:50:42.580Z,4.53
2022-09-24T01:54:35.708Z,4.25
2022-09-24T01:58:24.629Z,4.18
2022-09-24T02:02:29.150Z,4.13
2022-09-24T02:06:23.195Z,4.65
2022-09-24T02:10:05.849Z,3.60
2022-09-24T02:14:20.349Z,4.43
2022-09-24T02:18:08.097Z,3.78
2022-09-24T02:21:51.216Z,3.22
2022-09-24T02:25:50.635Z,3.40
2022-09-24T02:29:32.456Z,4.07
2022-09-24T02:33:33.741Z,3.60
2022-09-24T02:37:16.624Z,3.80
2022-09-24T02:40:58.894Z,3.17
2022-09-24T02:44:40.779Z,3.95
2022-09-24T02:48:22.662Z,3.10
2022-09-24T02:52:04.796Z,3.53
2022-09-24T02:55:46.564Z,3.58
2022-09-24T02:59:28.389Z,4.03
2022-09-24T03:03:10.208Z,2.90
2022-09-24T03:06:52.068Z,3.28
2022-09-24T03:10:35.051Z,3.13
2022-09-24T03:14:16.797Z,2.67
2022-09-24T03:17:58.587Z,2.53
2022-09-24T03:21:40.361Z,2.58
2022-09-24T03:25:22.413Z,2.60
2022-09-24T03:29:04.305Z,2.72
2022-09-24T03:32:48.085Z,2.40
2022-09-24T03:36:29.939Z,2.30
2022-09-24T03:40:12.024Z,2.33
2022-09-24T03:43:54.021Z,3.22
2022-09-24T03:47:35.785Z,2.50
2022-09-24T03:51:19.971Z,2.25
2022-09-24T03:55:01.851Z,2.08
2022-09-24T03:58:48.029Z,1.83
2022-09-24T04:02:31.146Z,1.80
2022-09-24T04:06:12.971Z,2.40
2022-09-24T04:09:54.794Z,2.00
2022-09-24T04:13:36.673Z,2.33
2022-09-24T04:17:18.502Z,2.15
2022-09-24T04:21:00.698Z,2.20
2022-09-24T04:24:42.489Z,1.88
2022-09-24T04:28:25.297Z,2.03
2022-09-24T04:32:07.079Z,1.52
2022-09-24T04:35:48.849Z,1.67
2022-09-24T04:39:30.625Z,1.48
2022-09-24T04:43:13.330Z,1.67
2022-09-24T04:46:55.856Z,1.35
2022-09-24T04:50:43.280Z,1.25
2022-09-24T04:54:29.980Z,1.30
2022-09-24T04:58:11.754Z,2.70
2022-09-24T05:01:54.528Z,0.95
2022-09-24T05:05:36.761Z,1.25
2022-09-24T05:09:18.682Z,1.35
2022-09-24T05:13:01.139Z,1.35
2022-09-24T05:16:42.878Z,1.10
2022-09-24T05:20:25.139Z,1.60
2022-09-24T05:24:07.092Z,1.95
2022-09-24T05:27:51.115Z,1.55
2022-09-24T05:31:33.035Z,1.73
2022-09-24T05:35:14.920Z,1.85
2022-09-24T05:38:56.757Z,1.75
2022-09-24T05:42:39.527Z,1.15
2022-09-24T05:46:21.514Z,1.40
2022-09-24T05:50:03.608Z,1.40
2022-09-24T05:53:45.423Z,1.13
2022-09-24T05:57:27.206Z,1.48
2022-09-24T06:01:09.028Z,1.67
2022-09-24T06:04:50.809Z,1.50
2022-09-24T06:08:35.454Z,1.77
2022-09-24T06:12:17.662Z,1.30
2022-09-24T06:16:04.278Z,1.60
2022-09-24T06:19:47.352Z,1.65
2022-09-24T06:23:29.775Z,1.63
2022-09-24T06:27:11.709Z,1.60
2022-09-24T06:30:54.046Z,1.40
2022-09-24T06:34:35.877Z,1.90
2022-09-24T06:38:19.343Z,1.42
2022-09-24T06:42:01.084Z,1.52
2022-09-24T06:45:43.104Z,1.58
2022-09-24T06:49:25.782Z,1.60
2022-09-24T06:53:09.893Z,1.60
2022-09-24T06:56:52.659Z,1.30
2022-09-24T07:00:36.114Z,1.20
2022-09-24T07:04:18.180Z,2.03
2022-09-24T07:08:00.329Z,1.48
2022-09-24T07:11:42.472Z,1.67
2022-09-24T07:15:24.321Z,1.60
2022-09-24T07:19:06.133Z,1.40
2022-09-24T07:22:47.931Z,1.58
2022-09-24T07:26:30.205Z,1.58
2022-09-24T07:30:12.928Z,1.42
2022-09-24T07:33:54.731Z,1.30
2022-09-24T07:37:36.532Z,1.98
2022-09-24T07:41:18.838Z,1.45
2022-09-24T07:45:01.018Z,1.55
2022-09-24T07:48:42.931Z,1.70
2022-09-24T07:52:24.672Z,1.48
2022-09-24T07:56:06.685Z,1.80
2022-09-24T07:59:48.757Z,1.27
2022-09-24T08:03:31.502Z,1.58
2022-09-24T08:07:13.758Z,1.40
2022-09-24T08:10:55.615Z,1.08
2022-09-24T08:14:37.408Z,1.40
2022-09-24T08:18:19.227Z,1.95
2022-09-24T08:22:01.123Z,1.20
2022-09-24T08:25:42.956Z,1.60
2022-09-24T08:29:24.749Z,1.73
2022-09-24T08:33:06.765Z,1.70
2022-09-24T08:36:50.342Z,0.85
2022-09-24T08:40:39.851Z,1.38
2022-09-24T08:45:03.989Z,1.67
2022-09-24T08:48:51.475Z,1.38
2022-09-24T08:52:59.583Z,1.05
2022-09-24T08:56:45.516Z,1.08
2022-09-24T09:00:31.846Z,0.98
2022-09-24T09:04:52.202Z,1.15
2022-09-24T09:09:06.774Z,1.83
2022-09-24T09:12:55.140Z,1.38
2022-09-24T09:16:48.976Z,1.15
2022-09-24T09:20:36.089Z,0.88
2022-09-24T09:24:39.972Z,1.27
2022-09-24T09:28:21.809Z,1.10
2022-09-24T09:32:30.523Z,1.10
2022-09-24T09:36:35.776Z,0.90
2022-09-24T09:40:40.491Z,1.00
2022-09-24T09:44:26.411Z,0.90
2022-09-24T09:48:14.170Z,0.60
2022-09-24T09:52:00.762Z,1.05
2022-09-24T09:55:42.564Z,0.93
2022-09-24T09:59:34.127Z,0.90
2022-09-24T10:03:30.173Z,0.70
2022-09-24T10:07:15.192Z,1.10
2022-09-24T10:10:59.979Z,0.82
2022-09-24T10:14:41.894Z,0.60
2022-09-24T10:18:35.683Z,0.88
2022-09-24T10:22:25.355Z,1.00
2022-09-24T10:26:08.364Z,0.90
2022-09-24T10:30:13.437Z,0.60
2022-09-24T10:33:57.293Z,1.08
2022-09-24T10:37:49.867Z,0.75
2022-09-24T10:41:34.764Z,0.75
2022-09-24T10:45:16.559Z,0.80
2022-09-24T10:49:36.677Z,0.40
2022-09-24T10:53:27.909Z,0.88
2022-09-24T10:57:25.487Z,0.93
2022-09-24T11:01:16.645Z,0.82
2022-09-24T11:05:17.139Z,0.70
2022-09-24T11:09:16.528Z,0.57
2022-09-24T11:13:26.016Z,0.50
2022-09-24T11:17:19.113Z,0.70
2022-09-24T11:21:16.167Z,0.73
2022-09-24T11:25:03.899Z,0.70
2022-09-24T11:29:22.693Z,0.55
2022-09-24T11:33:04.423Z,0.40
2022-09-24T11:36:58.578Z,0.38
2022-09-24T11:41:15.444Z,0.70
2022-09-24T11:45:27.229Z,0.57
2022-09-24T11:49:24.412Z,0.70
2022-09-24T11:53:15.248Z,0.55
2022-09-24T11:57:05.416Z,1.08
2022-09-24T12:00:57.816Z,0.40
2022-09-24T12:04:54.585Z,0.60
2022-09-24T12:08:45.049Z,0.65
2022-09-24T12:12:38.760Z,0.55
2022-09-24T12:16:26.388Z,0.47
2022-09-24T12:20:30.419Z,0.60
2022-09-24T12:24:23.891Z,0.50
2022-09-24T12:28:06.401Z,0.70
2022-09-24T12:32:40.645Z,0.50
2022-09-24T12:36:37.525Z,0.43
2022-09-24T12:40:33.590Z,0.47
2022-09-24T12:44:27.910Z,0.43
2022-09-24T12:48:16.135Z,0.50
2022-09-24T12:52:01.624Z,0.32
2022-09-24T12:55:45.614Z,0.20
2022-09-24T12:59:28.614Z,0.47
2022-09-24T13:03:34.054Z,0.50
2022-09-24T13:07:40.804Z,0.30
2022-09-24T13:11:30.536Z,0.30
2022-09-24T13:15:39.909Z,0.30
2022-09-24T13:19:23.779Z,0.40
2022-09-24T13:23:31.882Z,0.63
2022-09-24T13:27:21.853Z,0.60
2022-09-24T13:31:21.586Z,0.50
2022-09-24T13:35:09.538Z,0.47
2022-09-24T13:39:24.710Z,0.40
2022-09-24T13:43:18.570Z,0.50
2022-09-24T13:47:15.610Z,0.43
2022-09-24T13:50:57.434Z,0.63
2022-09-24T13:54:48.766Z,0.40
2022-09-24T13:58:41.991Z,0.40
2022-09-24T14:02:26.813Z,0.70
2022-09-24T14:06:14.413Z,0.47
2022-09-24T14:10:13.110Z,0.43
2022-09-24T14:13:56.405Z,0.60
2022-09-24T14:17:40.434Z,0.60
2022-09-24T14:21:32.036Z,0.88
2022-09-24T14:25:21.870Z,0.70
2022-09-24T14:29:16.415Z,0.68
2022-09-24T14:33:01.354Z,0.30
2022-09-24T14:36:43.216Z,0.23
2022-09-24T14:40:26.630Z,0.40
2022-09-24T14:44:26.065Z,0.35
2022-09-24T14:48:28.641Z,0.30
2022-09-24T14:52:31.318Z,0.60
2022-09-24T14:56:20.685Z,0.63
2022-09-24T15:00:02.649Z,0.50
2022-09-24T15:03:48.955Z,0.50
2022-09-24T15:07:31.517Z,0.50
2022-09-24T15:11:18.133Z,0.68
2022-09-24T15:15:02.659Z,0.57
2022-09-24T15:18:44.497Z,0.70
2022-09-24T15:22:28.139Z,0.52
2022-09-24T15:26:09.991Z,0.77
2022-09-24T15:29:51.925Z,0.40
2022-09-24T15:33:33.776Z,0.47
2022-09-24T15:37:19.902Z,0.60
2022-09-24T15:44:45.089Z,0.82
2022-09-24T15:48:26.867Z,0.70
2022-09-24T15:52:25.112Z,0.65
2022-09-24T15:56:07.683Z,0.40
2022-09-24T15:59:50.251Z,0.70
2022-09-24T16:03:33.225Z,0.40
2022-09-24T16:07:15.127Z,0.88
2022-09-24T16:10:56.880Z,0.25
2022-09-24T16:14:38.659Z,0.30
2022-09-24T16:18:22.263Z,0.52
2022-09-24T16:22:04.837Z,0.70
2022-09-24T16:25:57.413Z,0.43
2022-09-24T16:29:39.205Z,0.50
2022-09-24T16:33:21.736Z,0.40
2022-09-24T16:37:03.503Z,0.60
2022-09-24T16:40:45.542Z,0.77
2022-09-24T16:44:27.420Z,0.30
2022-09-24T16:48:11.543Z,0.30
2022-09-24T16:51:53.377Z,0.65
2022-09-24T16:55:35.212Z,0.40
2022-09-24T16:59:17.016Z,0.60
2022-09-24T17:02:59.676Z,0.40
2022-09-24T17:06:44.584Z,0.68
2022-09-24T17:10:26.421Z,0.93
2022-09-24T17:14:14.773Z,0.70
2022-09-24T17:17:56.845Z,0.95
2022-09-24T17:21:40.940Z,0.77
2022-09-24T17:25:22.728Z,0.60
2022-09-24T17:29:04.513Z,0.73
2022-09-24T17:32:46.275Z,0.60
2022-09-24T17:36:29.609Z,0.70
2022-09-24T17:40:11.529Z,0.93
2022-09-24T17:43:53.359Z,0.73
2022-09-24T17:47:55.080Z,0.90
2022-09-24T17:51:37.652Z,1.00
2022-09-24T17:55:19.411Z,0.93
2022-09-24T17:59:01.262Z,1.27
2022-09-24T18:02:43.081Z,0.95
2022-09-24T18:06:31.950Z,1.08
2022-09-24T18:10:17.249Z,1.17
2022-09-24T18:14:01.055Z,1.10
2022-09-24T18:17:42.871Z,1.60
2022-09-24T18:21:25.005Z,1.10
2022-09-24T18:25:07.558Z,1.10
2022-09-24T18:28:54.890Z,1.05
2022-09-24T18:32:37.087Z,1.52
2022-09-24T18:36:22.600Z,1.40
2022-09-24T18:40:05.934Z,1.40
2022-09-24T18:43:48.431Z,0.93
2022-09-24T18:47:30.617Z,1.40
2022-09-24T18:51:25.090Z,1.85
2022-09-24T18:55:07.721Z,1.15
2022-09-24T18:58:54.363Z,1.00
2022-09-24T19:06:18.204Z,1.15
2022-09-24T19:10:00.040Z,0.98
2022-09-24T19:13:42.940Z,1.15
2022-09-24T19:17:25.540Z,1.30
2022-09-24T19:21:09.936Z,0.98
2022-09-24T19:24:51.717Z,1.23
2022-09-24T19:28:35.160Z,1.08
2022-09-24T19:32:16.934Z,1.00
2022-09-24T19:36:04.669Z,1.27
2022-09-24T19:39:46.538Z,0.93
2022-09-24T19:43:29.734Z,0.80
2022-09-24T19:47:11.549Z,0.60
2022-09-24T19:50:54.423Z,0.80
2022-09-24T19:54:36.416Z,0.90
2022-09-24T19:58:18.296Z,0.80
2022-09-24T20:02:00.527Z,0.90
2022-09-24T20:05:43.641Z,0.80
2022-09-24T20:09:25.398Z,0.90
2022-09-24T20:13:10.620Z,0.85
2022-09-24T20:16:52.410Z,0.73
2022-09-24T20:20:34.841Z,0.80
2022-09-24T20:24:16.650Z,0.90
2022-09-24T20:27:58.416Z,0.93
2022-09-24T20:31:51.215Z,1.00
2022-09-24T20:35:33.487Z,1.17
2022-09-24T20:39:15.492Z,1.23
2022-09-24T20:42:57.323Z,1.25
2022-09-24T20:46:39.349Z,1.08
2022-09-24T20:50:21.397Z,1.10
2022-09-24T20:54:03.302Z,1.23
2022-09-24T20:57:45.171Z,0.93
2022-09-24T21:01:27.225Z,0.90
2022-09-24T21:05:10.513Z,1.35
2022-09-24T21:08:52.915Z,1.40
2022-09-24T21:12:34.763Z,1.02
2022-09-24T21:16:19.799Z,0.93
2022-09-24T21:20:02.292Z,1.10
2022-09-24T21:23:46.219Z,1.25
2022-09-24T21:27:28.031Z,1.15
2022-09-24T21:31:10.117Z,1.33
2022-09-24T21:34:51.999Z,1.15
2022-09-24T21:38:34.452Z,0.98
2022-09-24T21:42:18.354Z,1.38
2022-09-24T21:46:02.242Z,1.00
2022-09-24T21:49:44.098Z,1.42
2022-09-24T21:53:25.900Z,1.17
2022-09-24T21:57:07.794Z,1.10
2022-09-24T22:00:49.641Z,1.73
2022-09-24T22:04:34.194Z,0.98
2022-09-24T22:08:16.714Z,1.15
2022-09-24T22:12:00.563Z,1.35
2022-09-24T22:15:43.756Z,1.40
2022-09-24T22:19:25.532Z,0.90
2022-09-24T22:23:07.397Z,1.80
2022-09-24T22:26:49.297Z,1.45
2022-09-24T22:30:31.310Z,1.20
2022-09-24T22:34:31.577Z,1.10
2022-09-24T22:38:15.789Z,1.45
2022-09-24T22:41:57.639Z,0.95
2022-09-24T22:45:39.524Z,1.17
2022-09-24T22:49:22.529Z,1.10
2022-09-24T22:53:04.387Z,1.13
2022-09-24T22:56:46.160Z,1.50
2022-09-24T23:00:27.922Z,1.27
2022-09-24T23:04:13.325Z,1.30
2022-09-24T23:07:55.905Z,1.27
2022-09-24T23:11:37.822Z,0.93
2022-09-24T23:15:19.684Z,1.17
2022-09-24T23:19:04.804Z,1.08
2022-09-24T23:22:46.557Z,1.30
2022-09-24T23:26:29.203Z,1.08
2022-09-24T23:30:11.362Z,1.00
2022-09-24T23:33:55.632Z,1.35
2022-09-24T23:37:37.506Z,1.52
2022-09-24T23:41:19.877Z,1.00
2022-09-24T23:45:02.206Z,1.48
2022-09-24T23:48:44.446Z,1.30
2022-09-24T23:52:26.253Z,1.02
2022-09-24T23:56:08.908Z,1.10
2022-09-24T23:59:50.865Z,1.52
